Time;durP1;ratioP1;P1;durP2;ratioP2;P2;SDS_P1;SDS_P2;PMS_P1;PMS_P2;Temp;Humidity;BMP_temperature;BMP_pressure;BME280_temperature;BME280_humidity;BME280_pressure;Samples;Min_cycle;Max_cycle;Signal;HPM_P1;HPM_P2
2022/03/03 00:05:59;;;;;;;35.42;15.43;;;1.20;56.70;;;;;;6214578;22;20998;31
2022/03/03 03:46:26;;;;;;;37.40;18.80;;;0.40;62.20;;;;;;6264484;22;20019;-79
2022/03/03 03:48:52;;;;;;;45.78;19.55;;;0.40;62.20;;;;;;6240370;22;20175;-78
2022/03/03 03:51:18;;;;;;;48.60;22.55;;;0.40;62.20;;;;;;6265937;22;20325;-79
2022/03/03 03:53:44;;;;;;;44.30;20.10;;;0.40;62.50;;;;;;6265655;22;20237;-78
2022/03/03 03:56:10;;;;;;;47.00;20.13;;;0.40;62.50;;;;;;6316903;22;20037;-78
2022/03/03 03:58:36;;;;;;;40.20;18.58;;;0.40;62.60;;;;;;6265813;22;20004;-77
2022/03/03 04:01:02;;;;;;;42.40;20.52;;;0.40;62.50;;;;;;6291431;22;20026;-78
2022/03/03 04:03:27;;;;;;;49.75;19.83;;;0.40;62.80;;;;;;6317144;22;20003;-79
2022/03/03 04:05:53;;;;;;;44.38;20.23;;;0.40;62.70;;;;;;6291327;22;20038;-78
2022/03/03 04:08:19;;;;;;;45.13;20.77;;;0.40;62.70;;;;;;6291207;22;20030;-77
2022/03/03 04:10:47;;;;;;;46.42;19.50;;;0.40;62.90;;;;;;6291242;22;20011;-78
2022/03/03 04:13:15;;;;;;;45.95;20.52;;;0.40;62.90;;;;;;6265749;22;20057;-78
2022/03/03 04:15:41;;;;;;;36.67;18.83;;;0.40;62.90;;;;;;6318549;22;20062;-79
2022/03/03 04:18:07;;;;;;;43.10;20.30;;;0.40;62.90;;;;;;6265839;22;20251;-78
2022/03/03 04:20:33;;;;;;;41.50;19.23;;;0.40;62.80;;;;;;6291315;22;20040;-78
2022/03/03 04:22:59;;;;;;;37.90;18.55;;;0.40;62.90;;;;;;6265434;22;20062;-78
2022/03/03 04:25:25;;;;;;;48.97;20.05;;;0.30;62.90;;;;;;6317324;22;20045;-78
2022/03/03 04:27:50;;;;;;;44.05;19.98;;;0.30;63.10;;;;;;6316844;22;20010;-77
2022/03/03 04:30:16;;;;;;;41.10;19.60;;;0.30;63.20;;;;;;6291270;22;19991;-78
2022/03/03 04:32:42;;;;;;;43.25;19.63;;;0.30;63.20;;;;;;6240448;22;20014;-78
2022/03/03 04:35:09;;;;;;;40.03;19.48;;;0.30;63.00;;;;;;6236127;22;20318;-78
2022/03/03 04:37:36;;;;;;;39.38;19.08;;;0.30;63.00;;;;;;6265500;22;20011;-78
2022/03/03 04:40:04;;;;;;;38.85;18.92;;;0.30;63.20;;;;;;6265832;22;20070;-78
2022/03/03 04:42:30;;;;;;;43.90;19.95;;;0.30;63.40;;;;;;6316802;22;20283;-78
2022/03/03 04:44:56;;;;;;;39.88;18.98;;;0.20;63.60;;;;;;6265336;22;20008;-78
2022/03/03 04:47:21;;;;;;;45.22;21.33;;;0.20;63.70;;;;;;6259608;22;20020;-78
2022/03/03 04:49:47;;;;;;;47.15;21.08;;;0.20;63.50;;;;;;6287071;22;20008;-78
2022/03/03 04:52:13;;;;;;;39.65;20.52;;;0.20;63.50;;;;;;6311405;22;20007;-78
2022/03/03 04:54:39;;;;;;;42.13;19.75;;;0.20;63.50;;;;;;6311374;22;20018;-78
2022/03/03 04:57:05;;;;;;;40.53;21.15;;;0.20;63.40;;;;;;6311309;22;20008;-78
2022/03/03 04:59:31;;;;;;;41.38;18.90;;;0.20;63.80;;;;;;6285479;22;20015;-79
2022/03/03 05:01:56;;;;;;;42.05;19.15;;;0.10;63.90;;;;;;6285491;22;20010;-78
2022/03/03 05:04:22;;;;;;;40.60;20.80;;;0.10;63.80;;;;;;6285777;22;20010;-77
2022/03/03 05:06:49;;;;;;;41.45;21.55;;;0.10;64.00;;;;;;6285447;22;20034;-77
2022/03/03 05:09:15;;;;;;;47.83;20.75;;;0.10;64.30;;;;;;6259996;22;20012;-78
2022/03/03 05:11:41;;;;;;;50.38;20.27;;;0.00;64.30;;;;;;6285477;22;20008;-77
2022/03/03 05:14:07;;;;;;;46.05;20.55;;;0.00;64.40;;;;;;6259646;22;20041;-79
2022/03/03 05:16:33;;;;;;;42.83;21.05;;;0.00;64.40;;;;;;6259897;22;20011;-78
2022/03/03 05:18:59;;;;;;;39.33;20.40;;;0.00;64.70;;;;;;6285254;22;20191;-77
2022/03/03 05:21:25;;;;;;;43.97;20.80;;;0.00;64.90;;;;;;6259892;22;20065;-78
2022/03/03 05:23:51;;;;;;;46.55;20.40;;;-0.10;65.20;;;;;;6285462;22;20335;-78
2022/03/03 05:26:18;;;;;;;40.70;20.33;;;-0.10;65.60;;;;;;6259828;22;20234;-78
2022/03/03 05:28:44;;;;;;;48.60;21.05;;;-0.10;65.30;;;;;;6285365;22;20011;-78
2022/03/03 05:31:10;;;;;;;43.80;20.90;;;-0.10;65.40;;;;;;6306318;22;20038;-79
2022/03/03 05:33:36;;;;;;;42.33;19.02;;;-0.10;65.60;;;;;;6311077;22;20230;-78
2022/03/03 05:36:08;;;;;;;38.87;19.90;;;-0.10;65.70;;;;;;6284963;22;20007;-79
2022/03/03 05:38:35;;;;;;;45.92;20.83;;;0.00;65.80;;;;;;6310643;22;20007;-78
2022/03/03 05:41:02;;;;;;;39.83;19.17;;;0.00;65.60;;;;;;6259676;22;20049;-77
2022/03/03 05:43:28;;;;;;;42.90;20.55;;;0.00;65.60;;;;;;6310750;22;20050;-77
2022/03/03 05:45:55;;;;;;;47.22;22.67;;;-0.10;65.80;;;;;;6258730;22;20076;-78
2022/03/03 05:48:23;;;;;;;53.35;23.38;;;-0.10;65.80;;;;;;6311211;22;20011;-79
2022/03/03 05:50:49;;;;;;;45.17;22.38;;;-0.10;66.10;;;;;;6310829;22;20072;-79
2022/03/03 05:53:16;;;;;;;49.00;20.50;;;0.00;66.00;;;;;;6259158;22;20080;-79
2022/03/03 05:55:53;;;;;;;39.88;19.40;;;0.00;65.60;;;;;;6284952;22;20248;-78
2022/03/03 05:58:22;;;;;;;44.25;20.70;;;0.00;65.50;;;;;;6310625;22;20263;-78
2022/03/03 06:00:51;;;;;;;55.40;20.85;;;0.00;65.60;;;;;;6284722;22;20008;-78
2022/03/03 06:03:19;;;;;;;74.70;33.60;;;0.00;66.20;;;;;;6285829;22;20007;-78
2022/03/03 06:05:56;;;;;;;101.75;50.20;;;0.00;66.20;;;;;;6259428;22;20049;-78
2022/03/03 06:08:31;;;;;;;128.32;65.25;;;0.10;66.30;;;;;;6310320;22;20011;-78
2022/03/03 06:11:02;;;;;;;119.95;60.63;;;0.20;66.10;;;;;;6310865;22;20011;-78
2022/03/03 06:13:39;;;;;;;134.98;68.15;;;0.20;66.10;;;;;;6310337;22;20311;-77
2022/03/03 06:16:05;;;;;;;125.25;64.50;;;0.30;66.10;;;;;;6310496;22;20010;-79
2022/03/03 06:18:32;;;;;;;88.82;45.03;;;0.30;66.00;;;;;;6285026;22;20004;-79
2022/03/03 06:20:59;;;;;;;62.45;32.60;;;0.40;65.90;;;;;;6285029;22;20010;-79
2022/03/03 06:23:25;;;;;;;53.30;25.50;;;0.40;66.00;;;;;;6284068;22;20004;-78
2022/03/03 06:26:04;;;;;;;60.42;24.42;;;0.50;65.90;;;;;;6258300;22;20350;-79
2022/03/03 06:28:31;;;;;;;46.45;22.05;;;0.60;65.70;;;;;;6259012;22;20039;-77
2022/03/03 06:30:57;;;;;;;48.47;20.23;;;0.70;65.70;;;;;;6310101;22;20004;-78
2022/03/03 06:33:23;;;;;;;49.53;20.85;;;0.80;65.30;;;;;;6258676;22;20307;-78
2022/03/03 06:35:49;;;;;;;52.03;21.07;;;0.90;65.30;;;;;;6284596;22;20008;-78
2022/03/03 06:38:14;;;;;;;44.90;20.60;;;1.00;65.00;;;;;;6284365;22;20072;-78
2022/03/03 06:40:41;;;;;;;46.03;18.50;;;1.10;65.60;;;;;;6284502;22;20071;-78
2022/03/03 06:43:07;;;;;;;38.33;18.63;;;1.10;64.50;;;;;;6259054;22;20007;-78
2022/03/03 06:45:33;;;;;;;38.60;18.60;;;1.20;64.40;;;;;;6258299;22;20058;-78
2022/03/03 06:48:00;;;;;;;40.30;17.63;;;1.30;63.90;;;;;;6258218;22;20008;-78
2022/03/03 06:50:26;;;;;;;39.10;17.73;;;1.30;63.70;;;;;;6308958;22;20028;-79
2022/03/03 06:52:54;;;;;;;36.15;17.25;;;1.40;63.50;;;;;;6308803;22;20035;-79
2022/03/03 06:55:25;;;;;;;32.22;15.63;;;1.50;63.30;;;;;;6283313;22;20008;-78
2022/03/03 06:57:55;;;;;;;34.85;17.33;;;1.60;62.90;;;;;;6283286;22;20007;-78
2022/03/03 07:00:24;;;;;;;36.72;18.00;;;1.60;62.50;;;;;;6308935;22;20278;-78
2022/03/03 07:02:52;;;;;;;33.20;16.52;;;1.70;62.50;;;;;;6284846;22;20169;-79
2022/03/03 07:05:19;;;;;;;34.58;15.57;;;1.80;62.40;;;;;;6284574;22;20014;-77
2022/03/03 07:07:47;;;;;;;33.72;16.50;;;1.90;62.20;;;;;;6309476;22;20073;-78
2022/03/03 07:10:14;;;;;;;36.55;17.42;;;2.00;61.80;;;;;;6310703;22;20006;-78
2022/03/03 07:12:41;;;;;;;36.10;16.88;;;2.10;62.20;;;;;;6287082;22;20022;-78
2022/03/03 07:15:08;;;;;;;34.10;18.10;;;2.30;61.30;;;;;;6260136;22;20008;-77
2022/03/03 07:17:53;;;;;;;38.38;14.57;;;2.30;61.50;;;;;;6260154;22;20299;-78
2022/03/03 07:20:53;;;;;;;29.15;15.80;;;2.40;60.60;;;;;;6311077;22;20091;-78
2022/03/03 07:23:24;;;;;;;39.50;16.20;;;2.50;59.90;;;;;;6192867;23;20051;-78
2022/03/03 07:25:54;;;;;;;32.38;16.67;;;2.50;60.20;;;;;;6192404;23;20382;-79
2022/03/03 07:28:21;;;;;;;34.13;16.40;;;2.70;59.90;;;;;;6192521;23;20051;-79
2022/03/03 07:30:50;;;;;;;31.80;16.90;;;2.90;60.30;;;;;;6167732;23;20096;-79
2022/03/03 07:33:32;;;;;;;37.78;18.70;;;3.00;59.00;;;;;;6167651;23;20036;-77
2022/03/03 07:35:59;;;;;;;37.67;18.58;;;3.10;58.50;;;;;;6192491;23;20017;-77
2022/03/03 07:38:26;;;;;;;;;;;3.10;58.30;;;;;;6168834;23;20005;-77
2022/03/03 07:40:52;;;;;;;35.75;18.25;;;3.20;57.80;;;;;;6168070;23;20095;-78
2022/03/03 07:43:18;;;;;;;31.85;17.48;;;3.40;57.80;;;;;;6192708;23;20339;-79
2022/03/03 07:45:46;;;;;;;33.80;16.13;;;3.50;57.80;;;;;;6167831;23;20017;-78
2022/03/03 07:48:13;;;;;;;44.65;19.60;;;3.60;56.80;;;;;;6168155;23;20236;-79
2022/03/03 07:50:40;;;;;;;36.95;17.85;;;3.70;56.50;;;;;;6168015;23;20013;-77
2022/03/03 07:53:11;;;;;;;33.60;18.38;;;3.70;56.40;;;;;;6168062;23;20013;-78
2022/03/03 07:55:45;;;;;;;42.53;18.45;;;3.80;56.30;;;;;;6168178;23;20080;-78
2022/03/03 07:58:16;;;;;;;36.13;18.13;;;3.80;55.60;;;;;;6192959;23;20324;-78
2022/03/03 08:00:47;;;;;;;35.75;18.27;;;3.80;55.20;;;;;;6252517;22;20088;-79
2022/03/03 08:03:16;;;;;;;37.03;18.05;;;3.90;55.10;;;;;;6310654;22;20055;-78
2022/03/03 08:05:51;;;;;;;42.90;19.15;;;4.00;54.70;;;;;;6310655;22;20280;-78
2022/03/03 08:08:21;;;;;;;35.00;16.80;;;4.00;53.50;;;;;;6284578;22;20007;-78
2022/03/03 08:10:47;;;;;;;39.80;18.50;;;4.00;53.90;;;;;;6310562;22;20007;-79
2022/03/03 08:13:15;;;;;;;36.88;17.75;;;4.10;53.70;;;;;;6284741;22;20008;-79
2022/03/03 08:15:46;;;;;;;34.20;18.15;;;4.10;54.60;;;;;;6284515;22;20007;-78
2022/03/03 08:18:14;;;;;;;34.88;18.95;;;4.30;53.90;;;;;;6284369;22;20027;-78
2022/03/03 08:20:41;;;;;;;40.15;19.08;;;4.30;53.30;;;;;;6309738;22;20002;-78
2022/03/03 08:23:07;;;;;;;35.05;19.02;;;4.40;53.10;;;;;;6284615;22;20291;-77
2022/03/03 08:25:35;;;;;;;39.55;18.52;;;4.60;53.40;;;;;;6285746;22;20010;-78
2022/03/03 08:28:02;;;;;;;37.22;19.45;;;4.80;52.90;;;;;;6310549;22;20012;-77
2022/03/03 08:30:29;;;;;;;39.67;18.77;;;5.00;52.30;;;;;;6284949;22;20012;-78
2022/03/03 08:33:04;;;;;;;42.53;19.48;;;5.10;50.40;;;;;;6284484;22;20011;-79
2022/03/03 08:35:36;;;;;;;35.67;17.25;;;5.20;49.80;;;;;;6310703;22;20006;-78
2022/03/03 08:38:08;;;;;;;34.03;18.08;;;5.20;49.80;;;;;;6284398;22;20004;-78
2022/03/03 08:40:35;;;;;;;35.45;19.05;;;5.20;49.40;;;;;;6310360;22;20007;-79
2022/03/03 08:43:02;;;;;;;;;;;5.20;49.80;;;;;;6286912;22;20342;-78
2022/03/03 08:45:31;;;;;;;46.63;20.30;;;5.20;50.30;;;;;;6310564;22;20179;-78
2022/03/03 08:48:01;;;;;;;45.88;20.40;;;5.30;49.30;;;;;;6285349;22;19999;-79
2022/03/03 08:50:27;;;;;;;46.75;20.13;;;5.20;49.00;;;;;;6311319;22;20041;-79
2022/03/03 08:52:55;;;;;;;48.35;21.40;;;5.20;49.00;;;;;;6285564;22;20234;-78
2022/03/03 08:55:22;;;;;;;40.63;20.08;;;5.30;49.40;;;;;;6311269;22;20011;-77
2022/03/03 08:57:48;;;;;;;47.55;20.60;;;5.50;49.30;;;;;;6259501;22;20015;-77
2022/03/03 09:00:14;;;;;;;51.95;20.52;;;5.80;49.80;;;;;;6311173;22;20279;-78
2022/03/03 09:02:40;;;;;;;40.90;19.13;;;6.00;49.20;;;;;;6311182;22;20014;-77
2022/03/03 09:05:07;;;;;;;39.10;19.93;;;6.10;48.40;;;;;;6310901;22;20031;-78
2022/03/03 09:07:33;;;;;;;39.50;18.85;;;6.40;48.50;;;;;;6259739;22;20003;-77
2022/03/03 09:09:59;;;;;;;49.47;19.73;;;6.60;46.40;;;;;;6310343;22;20030;-78
2022/03/03 09:12:25;;;;;;;42.90;18.58;;;6.50;46.60;;;;;;6285175;22;20003;-77
2022/03/03 09:14:51;;;;;;;43.50;20.77;;;6.40;46.20;;;;;;6285110;22;20004;-77
2022/03/03 09:17:16;;;;;;;39.78;20.35;;;6.40;46.30;;;;;;6310454;22;20038;-77
2022/03/03 09:19:42;;;;;;;36.58;19.05;;;6.50;47.50;;;;;;6285027;22;20010;-77
2022/03/03 09:22:08;;;;;;;41.40;20.05;;;6.50;45.90;;;;;;6310691;22;20012;-78
2022/03/03 09:24:34;;;;;;;36.80;17.30;;;6.50;45.80;;;;;;6284962;22;20004;-78
2022/03/03 09:27:00;;;;;;;39.70;18.45;;;6.40;46.20;;;;;;6284161;22;20045;-78
2022/03/03 09:29:28;;;;;;;38.85;19.73;;;6.20;46.00;;;;;;6310475;22;20035;-78
2022/03/03 09:31:53;;;;;;;40.58;19.45;;;6.20;46.80;;;;;;6234148;22;20028;-78
2022/03/03 09:34:19;;;;;;;39.90;20.27;;;6.20;46.80;;;;;;6259862;22;20007;-78
2022/03/03 09:36:45;;;;;;;49.72;19.85;;;6.40;47.10;;;;;;6284894;22;20030;-78
2022/03/03 09:39:11;;;;;;;39.50;19.27;;;6.60;47.50;;;;;;6259442;22;20014;-78
2022/03/03 09:41:38;;;;;;;34.42;17.25;;;6.70;46.10;;;;;;6285014;22;20073;-77
2022/03/03 09:44:04;;;;;;;;;;;6.80;45.90;;;;;;6259814;22;20007;-77
2022/03/03 09:46:30;;;;;;;33.37;17.67;;;7.00;46.00;;;;;;6310102;22;19911;-78
2022/03/03 09:48:56;;;;;;;35.58;18.63;;;7.20;44.30;;;;;;6310747;22;20011;-78
2022/03/03 09:51:22;;;;;;;31.63;18.73;;;7.20;44.50;;;;;;6315003;22;20007;-77
2022/03/03 09:53:49;;;;;;;42.03;18.98;;;7.20;44.50;;;;;;6289497;22;20076;-78
2022/03/03 09:56:16;;;;;;;35.65;17.95;;;7.20;44.60;;;;;;6259819;22;20045;-77
2022/03/03 09:58:42;;;;;;;32.55;18.35;;;7.40;45.30;;;;;;6311420;22;20022;-78
2022/03/03 10:01:08;;;;;;;36.22;18.80;;;7.40;44.80;;;;;;6285455;22;20216;-77
2022/03/03 10:03:35;;;;;;;32.60;17.57;;;7.40;44.70;;;;;;6311362;22;20008;-78
2022/03/03 10:06:01;;;;;;;34.88;18.35;;;7.50;44.40;;;;;;6310602;22;20230;-79
2022/03/03 10:08:29;;;;;;;42.33;18.20;;;7.60;43.70;;;;;;6259103;22;20299;-78
2022/03/03 10:11:01;;;;;;;38.80;18.35;;;7.60;44.10;;;;;;6284323;22;20110;-78
2022/03/03 10:13:42;;;;;;;29.67;16.40;;;7.80;45.20;;;;;;6309732;22;20003;-78
2022/03/03 10:16:08;;;;;;;35.03;17.02;;;8.10;43.60;;;;;;6283407;22;20314;-77
2022/03/03 10:18:34;;;;;;;32.33;18.63;;;8.30;42.70;;;;;;6283428;22;20069;-78
2022/03/03 10:21:02;;;;;;;33.40;17.25;;;8.30;42.40;;;;;;6310180;22;20007;-78
2022/03/03 10:23:34;;;;;;;31.63;16.92;;;8.60;42.80;;;;;;6309563;22;20004;-78
2022/03/03 10:26:04;;;;;;;44.80;20.73;;;8.80;42.60;;;;;;6310240;22;20039;-77
2022/03/03 10:28:32;;;;;;;35.75;15.80;;;9.00;41.00;;;;;;6309881;22;20049;-79
2022/03/03 10:31:10;;;;;;;33.10;17.27;;;8.90;40.20;;;;;;6285926;22;20007;-79
2022/03/03 10:33:38;;;;;;;37.08;18.38;;;8.90;40.70;;;;;;6310018;22;20211;-79
2022/03/03 10:36:16;;;;;;;33.47;17.40;;;9.00;41.90;;;;;;6284388;22;20015;-79
2022/03/03 10:38:54;;;;;;;36.38;16.88;;;9.10;40.60;;;;;;6309798;22;20012;-79
2022/03/03 10:41:37;;;;;;;35.97;18.23;;;9.10;41.10;;;;;;6309628;22;20203;-79
2022/03/03 10:44:12;;;;;;;32.53;17.52;;;9.30;40.70;;;;;;6309168;22;20014;-79
2022/03/03 10:46:41;;;;;;;40.78;17.80;;;9.30;40.70;;;;;;6309533;22;20035;-78
2022/03/03 10:49:21;;;;;;;34.20;17.80;;;9.20;40.50;;;;;;6284441;22;20007;-78
2022/03/03 10:51:47;;;;;;;30.48;16.85;;;9.30;41.10;;;;;;6258465;22;20012;-78
2022/03/03 10:54:13;;;;;;;38.03;17.85;;;9.50;41.70;;;;;;6258522;22;20012;-78
2022/03/03 10:56:48;;;;;;;32.63;17.67;;;9.60;40.10;;;;;;6283872;22;20204;-78
2022/03/03 10:59:24;;;;;;;33.03;17.67;;;9.70;39.50;;;;;;6309625;22;20003;-78
2022/03/03 11:01:52;;;;;;;31.00;16.95;;;9.70;41.20;;;;;;6258641;22;20012;-78
2022/03/03 11:04:21;;;;;;;30.58;17.40;;;9.80;40.90;;;;;;6259243;22;20244;-78
2022/03/03 11:06:49;;;;;;;40.13;17.50;;;10.10;40.90;;;;;;6283988;22;20071;-78
2022/03/03 11:09:17;;;;;;;34.65;17.85;;;10.30;40.60;;;;;;6258622;22;20042;-77
2022/03/03 11:11:43;;;;;;;34.47;17.33;;;10.40;39.40;;;;;;6284259;22;20015;-78
2022/03/03 11:14:10;;;;;;;30.10;17.25;;;10.50;40.10;;;;;;6284236;22;20016;-79
2022/03/03 11:16:36;;;;;;;;;;;10.60;38.40;;;;;;6284508;22;20007;-78
2022/03/03 11:19:02;;;;;;;35.23;19.33;;;10.60;39.90;;;;;;6258833;22;20125;-79
2022/03/03 11:21:28;;;;;;;39.03;19.05;;;10.70;39.00;;;;;;6258772;22;20007;-79
2022/03/03 11:23:59;;;;;;;36.97;20.02;;;10.80;38.40;;;;;;6258607;22;19992;-79
2022/03/03 11:26:34;;;;;;;34.03;19.48;;;11.00;39.00;;;;;;6309971;22;20070;-78
2022/03/03 11:29:11;;;;;;;35.13;19.15;;;11.10;38.20;;;;;;6309891;22;20199;-79
2022/03/03 11:31:38;;;;;;;41.23;19.73;;;11.00;37.10;;;;;;6309902;22;20216;-78
2022/03/03 11:34:32;;;;;;;38.17;20.30;;;10.90;37.60;;;;;;6258946;22;20010;-79
2022/03/03 11:37:18;;;;;;;36.90;19.55;;;11.00;38.10;;;;;;6309520;22;20008;-79
2022/03/03 11:39:48;;;;;;;32.30;19.27;;;10.90;37.40;;;;;;6309921;22;19999;-79
2022/03/03 11:42:48;;;;;;;45.63;21.38;;;10.80;38.50;;;;;;6309938;22;20004;-79
2022/03/03 11:45:13;;;;;;;34.17;19.13;;;11.00;38.30;;;;;;6309640;22;20290;-79
2022/03/03 11:47:47;;;;;;;35.35;18.85;;;11.00;37.80;;;;;;6309374;22;20035;-78
2022/03/03 11:50:20;;;;;;;34.75;20.77;;;11.00;37.80;;;;;;6309713;22;20310;-79
2022/03/03 11:52:59;;;;;;;35.47;19.00;;;10.80;37.70;;;;;;6309613;22;20259;-79
2022/03/03 11:55:38;;;;;;;32.97;18.40;;;10.60;37.60;;;;;;6309925;22;20016;-80
2022/03/03 11:58:27;;;;;;;40.03;21.98;;;10.70;38.40;;;;;;6311747;22;20541;-80
2022/03/03 12:01:00;;;;;;;31.90;17.52;;;10.70;37.10;;;;;;6285876;22;20287;-80
2022/03/03 12:03:28;;;;;;;35.50;17.58;;;10.70;36.70;;;;;;6311171;22;20008;-80
2022/03/03 12:06:13;;;;;;;37.88;19.13;;;10.80;37.00;;;;;;6260750;22;20012;-80
2022/03/03 12:08:40;;;;;;;33.08;18.15;;;10.90;37.60;;;;;;6311078;22;20014;-80
2022/03/03 12:11:09;;;;;;;31.15;18.85;;;11.00;36.80;;;;;;6311906;22;20007;-80
2022/03/03 12:13:38;;;;;;;35.05;18.80;;;10.90;37.10;;;;;;6312526;22;20079;-79
2022/03/03 12:16:33;;;;;;;36.58;18.45;;;10.80;36.10;;;;;;6312853;22;20007;-79
2022/03/03 12:19:08;;;;;;;39.57;18.77;;;10.60;37.20;;;;;;6168616;23;20100;-79
2022/03/03 12:21:50;;;;;;;44.25;20.42;;;10.60;36.60;;;;;;6193934;23;20089;-79
2022/03/03 12:24:18;;;;;;;37.70;21.10;;;10.70;37.80;;;;;;6169401;23;20304;-80
2022/03/03 12:26:55;;;;;;;34.17;20.92;;;10.80;37.80;;;;;;6193463;23;20328;-79
2022/03/03 12:29:42;;;;;;;35.88;20.15;;;11.10;37.90;;;;;;6168199;23;20009;-80
2022/03/03 12:32:34;;;;;;;49.17;20.45;;;11.20;37.80;;;;;;6192824;23;20008;-79
2022/03/03 12:35:20;;;;;;;37.92;19.20;;;11.30;37.40;;;;;;6193377;23;20009;-79
2022/03/03 12:37:47;;;;;;;38.47;19.58;;;11.30;36.90;;;;;;6193335;23;20247;-79
2022/03/03 12:40:16;;;;;;;39.08;19.42;;;11.30;37.20;;;;;;6193005;23;20013;-79
2022/03/03 12:42:45;;;;;;;33.60;19.65;;;11.30;36.10;;;;;;6193354;23;20043;-79
2022/03/03 12:45:18;;;;;;;41.58;18.48;;;11.30;35.90;;;;;;6193009;23;20005;-80
2022/03/03 12:47:48;;;;;;;32.05;17.67;;;11.30;37.10;;;;;;6166471;23;20308;-80
2022/03/03 12:50:14;;;;;;;42.95;19.63;;;11.30;36.20;;;;;;6192139;23;20343;-80
2022/03/03 12:52:53;;;;;;;39.83;18.55;;;11.30;35.90;;;;;;6192162;23;20064;-79
2022/03/03 12:55:18;;;;;;;34.45;18.60;;;11.20;35.70;;;;;;6246313;22;20007;-79
2022/03/03 12:57:44;;;;;;;33.45;19.33;;;11.20;36.40;;;;;;6258391;22;20037;-78
2022/03/03 13:00:12;;;;;;;34.22;18.50;;;11.30;35.50;;;;;;6258455;22;20016;-79
2022/03/03 13:02:58;;;;;;;35.15;17.63;;;11.10;34.80;;;;;;6309858;22;20011;-79
2022/03/03 13:05:51;;;;;;;30.88;18.38;;;11.00;35.60;;;;;;6309890;22;20105;-79
2022/03/03 13:08:27;;;;;;;37.05;18.02;;;11.00;35.20;;;;;;6191474;23;20020;-79
2022/03/03 13:10:56;;;;;;;39.60;20.00;;;11.00;35.20;;;;;;6191893;23;20008;-78
2022/03/03 13:13:22;;;;;;;41.45;19.35;;;11.00;36.10;;;;;;6191937;23;20072;-78
2022/03/03 13:15:48;;;;;;;40.97;21.70;;;10.90;35.40;;;;;;6166551;23;20080;-79
2022/03/03 13:18:16;;;;;;;37.42;19.95;;;10.60;35.40;;;;;;6191861;23;20327;-78
2022/03/03 13:20:56;;;;;;;38.80;20.73;;;10.50;36.50;;;;;;6191215;23;20300;-79
2022/03/03 13:23:28;;;;;;;39.17;20.75;;;10.40;36.30;;;;;;6191798;23;20312;-80
2022/03/03 13:26:12;;;;;;;43.60;20.77;;;10.30;36.20;;;;;;6191498;23;20394;-80
2022/03/03 13:28:42;;;;;;;40.35;21.58;;;10.30;36.60;;;;;;6191655;23;20016;-79
2022/03/03 13:31:09;;;;;;;41.78;19.38;;;10.30;37.60;;;;;;6191569;23;20009;-78
2022/03/03 13:33:55;;;;;;;25.10;15.48;;;10.50;36.10;;;;;;6166979;23;20033;-79
2022/03/03 13:36:22;;;;;;;30.35;17.17;;;10.60;33.10;;;;;;6191603;23;20066;-79
2022/03/03 13:38:50;;;;;;;31.45;17.67;;;10.50;33.70;;;;;;6191266;23;20304;-80
2022/03/03 13:41:33;;;;;;;33.08;17.70;;;10.50;33.30;;;;;;6191630;23;20008;-80
2022/03/03 13:44:18;;;;;;;33.88;17.40;;;10.50;33.70;;;;;;6191066;23;20032;-80
2022/03/03 13:46:59;;;;;;;33.13;17.38;;;10.50;33.90;;;;;;6308703;22;20024;-79
2022/03/03 13:49:31;;;;;;;33.03;17.50;;;10.50;32.90;;;;;;6309377;22;20023;-79
2022/03/03 13:52:08;;;;;;;33.17;17.30;;;10.40;31.20;;;;;;6279550;22;20240;-79
2022/03/03 13:54:49;;;;;;;40.50;17.38;;;10.30;31.40;;;;;;6309977;22;20000;-79
2022/03/03 13:58:01;;;;;;;32.85;17.55;;;10.20;32.40;;;;;;6284400;22;20063;-79
2022/03/03 14:00:28;;;;;;;30.45;17.13;;;10.30;32.70;;;;;;6191990;23;20001;-79
2022/03/03 14:02:56;;;;;;;30.85;18.23;;;10.40;33.20;;;;;;6192450;23;20096;-79
2022/03/03 14:05:40;;;;;;;36.00;17.63;;;10.40;33.30;;;;;;6192213;23;20001;-79
2022/03/03 14:08:29;;;;;;;31.60;17.38;;;10.50;32.80;;;;;;6167258;23;20047;-80
2022/03/03 14:10:58;;;;;;;33.03;17.10;;;10.50;33.10;;;;;;6191756;23;20360;-80
2022/03/03 14:13:27;;;;;;;31.23;16.80;;;10.40;33.50;;;;;;6192215;23;20071;-80
2022/03/03 14:15:56;;;;;;;32.92;15.07;;;10.50;32.60;;;;;;6192063;23;20312;-80
2022/03/03 14:18:24;;;;;;;26.75;14.50;;;10.50;31.90;;;;;;6190746;23;20017;-80
2022/03/03 14:20:55;;;;;;;28.75;14.32;;;10.40;30.60;;;;;;6167650;23;20038;-80
2022/03/03 14:23:23;;;;;;;26.50;12.88;;;10.40;30.00;;;;;;6191565;23;20027;-80
2022/03/03 14:25:49;;;;;;;28.35;13.77;;;10.40;30.80;;;;;;6192099;23;20005;-79
2022/03/03 14:28:18;;;;;;;28.83;13.63;;;10.50;31.40;;;;;;6142808;23;20004;-80
2022/03/03 14:30:46;;;;;;;25.27;13.75;;;10.60;31.40;;;;;;6191926;23;20032;-80
2022/03/03 14:33:12;;;;;;;28.40;12.73;;;10.60;31.80;;;;;;6190980;23;20001;-80
2022/03/03 14:35:38;;;;;;;28.65;14.43;;;10.50;31.00;;;;;;6166611;23;20047;-80
2022/03/03 14:38:04;;;;;;;34.22;14.02;;;10.40;32.00;;;;;;6266165;22;20003;-80
2022/03/03 14:40:33;;;;;;;31.50;13.85;;;10.40;31.60;;;;;;6309244;22;20279;-80
2022/03/03 14:42:59;;;;;;;26.15;13.15;;;10.30;32.40;;;;;;6258737;22;20004;-80
2022/03/03 14:45:24;;;;;;;23.15;12.40;;;10.30;31.50;;;;;;6283203;22;20011;-80
2022/03/03 14:47:54;;;;;;;23.92;13.18;;;10.30;32.30;;;;;;6309338;22;20202;-80
2022/03/03 14:50:22;;;;;;;28.98;15.23;;;10.30;32.20;;;;;;6258613;22;20003;-80
2022/03/03 14:52:48;;;;;;;24.02;13.68;;;10.20;32.90;;;;;;6309218;22;20207;-79
2022/03/03 14:55:14;;;;;;;26.67;13.57;;;10.20;32.70;;;;;;6283891;22;20014;-79
2022/03/03 14:57:40;;;;;;;25.02;12.77;;;10.20;32.90;;;;;;6283312;22;20034;-79
2022/03/03 15:00:08;;;;;;;26.55;12.85;;;10.20;33.10;;;;;;6309301;22;20310;-79
2022/03/03 15:02:35;;;;;;;24.00;11.52;;;10.20;32.00;;;;;;6284532;22;19999;-79
2022/03/03 15:05:02;;;;;;;23.45;12.13;;;10.20;31.90;;;;;;6283563;22;20010;-79
2022/03/03 15:07:28;;;;;;;30.88;13.00;;;10.20;31.70;;;;;;6284312;22;20012;-79
2022/03/03 15:09:54;;;;;;;26.95;12.43;;;10.00;32.00;;;;;;6283697;22;19996;-79
2022/03/03 15:12:20;;;;;;;35.15;13.93;;;10.10;32.50;;;;;;6257812;22;20023;-80
2022/03/03 15:14:46;;;;;;;30.33;15.32;;;10.10;33.20;;;;;;6258512;22;20020;-80
2022/03/03 15:17:11;;;;;;;23.00;13.13;;;10.20;33.60;;;;;;6257615;22;20007;-80
2022/03/03 15:19:38;;;;;;;24.58;12.70;;;10.30;32.90;;;;;;6258468;22;20008;-80
2022/03/03 15:22:07;;;;;;;31.30;11.32;;;10.40;32.50;;;;;;6257964;22;20054;-80
2022/03/03 15:24:32;;;;;;;31.35;11.82;;;10.50;32.10;;;;;;6283535;22;20015;-79
2022/03/03 15:26:58;;;;;;;23.02;12.77;;;10.30;31.80;;;;;;6283952;22;20231;-80
2022/03/03 15:29:24;;;;;;;25.67;14.23;;;10.30;32.50;;;;;;6283648;22;20019;-79
2022/03/03 15:31:50;;;;;;;26.15;13.77;;;10.30;33.40;;;;;;6260215;22;20030;-79
2022/03/03 15:37:00;;;;;;;24.83;13.50;;;10.30;33.80;;;;;;6285971;22;20027;-79
2022/03/03 15:39:28;;;;;;;23.20;12.70;;;10.40;33.40;;;;;;6260210;22;20207;-79
2022/03/03 15:41:59;;;;;;;28.23;13.48;;;10.40;33.40;;;;;;6260336;22;20004;-79
2022/03/03 15:44:26;;;;;;;24.02;13.73;;;10.30;33.30;;;;;;6285405;22;20004;-79
2022/03/03 15:46:53;;;;;;;31.65;14.60;;;10.10;33.80;;;;;;6259331;22;20042;-77
2022/03/03 15:49:20;;;;;;;37.85;15.27;;;9.90;34.60;;;;;;6310679;22;20310;-79
2022/03/03 15:51:47;;;;;;;30.52;15.45;;;9.60;35.00;;;;;;6285404;22;20010;-79
2022/03/03 15:54:13;;;;;;;26.98;14.48;;;9.40;35.80;;;;;;6285424;22;20018;-79
2022/03/03 15:56:40;;;;;;;40.30;16.02;;;9.50;36.00;;;;;;6311200;22;20349;-78
2022/03/03 15:59:08;;;;;;;29.08;15.25;;;9.50;36.00;;;;;;6311328;22;20206;-79
2022/03/03 16:01:34;;;;;;;30.02;16.38;;;9.40;36.00;;;;;;6285769;22;20004;-79
2022/03/03 16:04:01;;;;;;;33.22;16.20;;;9.20;36.50;;;;;;6260167;22;20011;-79
2022/03/03 16:06:27;;;;;;;35.15;16.73;;;8.90;37.00;;;;;;6285811;22;20018;-79
2022/03/03 16:08:54;;;;;;;37.23;18.13;;;8.80;37.50;;;;;;6285371;22;20007;-79
2022/03/03 16:11:21;;;;;;;40.60;17.38;;;8.60;38.00;;;;;;6285280;22;20420;-79
2022/03/03 16:13:49;;;;;;;33.40;16.55;;;8.50;38.40;;;;;;6259844;22;20007;-79
2022/03/03 16:16:15;;;;;;;39.58;17.65;;;8.30;38.80;;;;;;6260152;22;20238;-80
2022/03/03 16:18:41;;;;;;;34.73;17.60;;;8.20;39.60;;;;;;6311285;22;20014;-80
2022/03/03 16:21:07;;;;;;;38.72;18.52;;;8.10;39.30;;;;;;6260003;22;20008;-80
2022/03/03 16:23:33;;;;;;;37.22;18.45;;;8.10;39.50;;;;;;6311603;22;20026;-80
2022/03/03 16:25:59;;;;;;;41.03;17.08;;;8.00;39.80;;;;;;6286145;22;20208;-79
2022/03/03 16:28:24;;;;;;;45.03;17.35;;;8.00;40.10;;;;;;6285957;22;20008;-78
2022/03/03 16:30:51;;;;;;;59.10;18.92;;;7.90;40.10;;;;;;6260428;22;20083;-79